Time;durP1;ratioP1;P1;durP2;ratioP2;P2;SDS_P1;SDS_P2;PMS_P1;PMS_P2;Temp;Humidity;BMP_temperature;BMP_pressure;BME280_temperature;BME280_humidity;BME280_pressure;Samples;Min_cycle;Max_cycle;Signal;HPM_P1;HPM_P2
2023/09/06 00:03:01;;;;;;;3.85;2.20;;;20.40;1.00;;;;;;20573903;28;20042;-41
2023/09/06 00:13:02;;;;;;;4.60;2.30;;;20.50;1.00;;;;;;20571745;28;20038;-41
2023/09/06 00:23:04;;;;;;;3.88;2.45;;;20.70;1.00;;;;;;20565365;28;20080;-41
2023/09/06 00:33:06;;;;;;;4.28;2.58;;;21.00;1.00;;;;;;20567222;28;21248;-41
2023/09/06 00:43:08;;;;;;;4.78;2.40;;;21.10;1.00;;;;;;20570994;28;20542;-41
2023/09/06 00:53:09;;;;;;;3.92;2.50;;;21.20;1.00;;;;;;20570068;28;20144;-41
2023/09/06 01:03:10;;;;;;;7.20;3.10;;;21.10;1.00;;;;;;20568809;28;20658;-41
2023/09/06 01:13:10;;;;;;;5.90;3.05;;;21.00;1.00;;;;;;20566411;28;20507;-41
2023/09/06 01:23:33;;;;;;;5.38;3.17;;;21.00;1.00;;;;;;20567729;28;20038;-41
2023/09/06 01:33:34;;;;;;;6.90;3.40;;;20.90;1.00;;;;;;20559981;28;20060;-41
2023/09/06 01:43:35;;;;;;;5.32;3.05;;;20.70;1.00;;;;;;20556572;28;20054;-41
2023/09/06 01:53:35;;;;;;;5.67;3.70;;;20.50;1.00;;;;;;20567610;28;20406;-41
2023/09/06 02:03:36;;;;;;;5.60;3.70;;;20.30;1.00;;;;;;20581121;28;20042;-41
2023/09/06 02:13:36;;;;;;;4.85;3.45;;;20.10;1.00;;;;;;20576909;28;20030;-41
2023/09/06 02:23:37;;;;;;;5.28;3.60;;;19.80;1.00;;;;;;20577711;28;20417;-41
2023/09/06 02:33:37;;;;;;;5.05;3.42;;;19.60;1.00;;;;;;20576500;28;20113;-41
2023/09/06 02:43:38;;;;;;;5.43;3.80;;;19.30;1.00;;;;;;20578393;28;20470;-41
2023/09/06 02:53:44;;;;;;;6.22;4.30;;;19.10;1.00;;;;;;20583822;28;20034;-41
2023/09/06 03:03:48;;;;;;;7.95;4.63;;;18.90;1.00;;;;;;20575058;28;20042;-40
2023/09/06 03:13:55;;;;;;;9.02;4.90;;;18.70;1.00;;;;;;20583719;28;20502;-41
2023/09/06 03:23:55;;;;;;;7.77;4.10;;;18.70;1.00;;;;;;20582567;28;20073;-41
2023/09/06 03:33:58;;;;;;;5.93;4.10;;;18.70;1.00;;;;;;20586410;28;20050;-41
2023/09/06 03:43:59;;;;;;;6.70;4.47;;;18.70;1.00;;;;;;20589948;28;20053;-41
2023/09/06 03:54:00;;;;;;;7.03;4.35;;;18.50;1.00;;;;;;20586745;28;20109;-41
2023/09/06 04:04:01;;;;;;;7.38;4.97;;;18.50;1.00;;;;;;20576473;28;20046;-40
2023/09/06 04:14:02;;;;;;;6.50;4.35;;;18.40;1.00;;;;;;20579921;28;20039;-41
2023/09/06 04:24:03;;;;;;;5.70;4.40;;;18.30;1.00;;;;;;20584077;28;20057;-41
2023/09/06 04:34:04;;;;;;;6.03;4.55;;;18.10;1.00;;;;;;20583536;28;20049;-41
2023/09/06 04:44:05;;;;;;;8.25;5.28;;;18.00;1.00;;;;;;20583913;28;20569;-40
2023/09/06 04:54:09;;;;;;;8.73;5.40;;;17.80;1.00;;;;;;20579825;28;20050;-41
2023/09/06 05:04:10;;;;;;;7.80;5.97;;;17.70;1.00;;;;;;20580863;28;20081;-41
2023/09/06 05:14:10;;;;;;;9.60;5.82;;;17.70;3.80;;;;;;20571254;28;20035;-41
2023/09/06 05:24:11;;;;;;;7.53;6.03;;;17.70;8.70;;;;;;20565777;28;20043;-40
2023/09/06 05:34:12;;;;;;;9.82;7.63;;;17.70;10.20;;;;;;20564292;28;20293;-41
2023/09/06 05:44:12;;;;;;;9.68;6.57;;;17.90;5.90;;;;;;20597359;28;20565;-41
2023/09/06 05:54:13;;;;;;;8.90;7.07;;;18.10;1.00;;;;;;20588925;28;22742;-41
2023/09/06 06:04:13;;;;;;;15.82;9.15;;;18.20;1.00;;;;;;20576887;28;20038;-41
2023/09/06 06:14:14;;;;;;;10.18;7.22;;;18.40;1.00;;;;;;20589547;28;20065;-41
2023/09/06 06:24:14;;;;;;;11.70;7.65;;;18.60;1.00;;;;;;20587765;28;20049;-41
2023/09/06 06:34:18;;;;;;;11.00;7.63;;;19.00;1.00;;;;;;20585006;28;20046;-41
2023/09/06 06:44:18;;;;;;;13.70;7.80;;;19.30;1.00;;;;;;20590634;28;20596;-41
2023/09/06 06:54:20;;;;;;;10.73;8.90;;;19.60;1.00;;;;;;20585883;28;20069;-41
2023/09/06 07:04:21;;;;;;;9.73;6.68;;;19.90;1.00;;;;;;20594113;28;20146;-41
2023/09/06 07:14:22;;;;;;;12.40;8.68;;;20.20;1.00;;;;;;20586175;28;20047;-41
2023/09/06 07:24:22;;;;;;;8.77;6.53;;;20.60;1.00;;;;;;20593271;28;20031;-41
2023/09/06 07:34:23;;;;;;;10.60;7.55;;;20.90;1.00;;;;;;20590749;28;20520;-41
2023/09/06 07:44:23;;;;;;;9.38;7.20;;;21.20;1.00;;;;;;20571688;28;20233;-41
2023/09/06 07:54:24;;;;;;;8.93;7.05;;;21.50;1.00;;;;;;20569763;28;20058;-41
2023/09/06 08:04:25;;;;;;;9.13;6.47;;;22.10;1.00;;;;;;20578298;28;20038;-41
2023/09/06 08:14:25;;;;;;;7.00;5.38;;;22.50;1.00;;;;;;20581008;28;20052;-41
2023/09/06 08:24:26;;;;;;;6.43;4.85;;;22.70;1.00;;;;;;20580367;28;20038;-41
2023/09/06 08:34:26;;;;;;;9.05;5.60;;;23.20;1.00;;;;;;20580361;28;20035;-41
2023/09/06 08:44:31;;;;;;;5.95;4.70;;;23.70;1.00;;;;;;20581893;28;20453;-41
2023/09/06 08:54:33;;;;;;;4.90;3.67;;;24.30;1.00;;;;;;20576673;28;20498;-41
2023/09/06 09:04:34;;;;;;;8.82;5.15;;;24.70;1.00;;;;;;20561301;28;20541;-41
2023/09/06 09:14:34;;;;;;;7.45;4.00;;;24.90;1.00;;;;;;20571703;28;20502;-41
2023/09/06 09:24:35;;;;;;;6.78;2.90;;;25.60;1.00;;;;;;20571230;28;20394;-42
2023/09/06 09:34:35;;;;;;;9.50;3.95;;;26.80;1.00;;;;;;20567803;28;20047;-41
2023/09/06 09:44:36;;;;;;;4.50;3.40;;;26.40;1.00;;;;;;20567920;28;20459;-41
2023/09/06 09:54:42;;;;;;;7.32;3.60;;;26.30;1.00;;;;;;20568004;28;20042;-41
2023/09/06 10:04:44;;;;;;;5.63;3.72;;;26.90;1.00;;;;;;20569650;28;20047;-41
2023/09/06 10:14:45;;;;;;;5.60;3.83;;;26.70;1.00;;;;;;20566866;28;20121;-42
2023/09/06 10:24:51;;;;;;;6.00;3.70;;;26.80;1.00;;;;;;20582400;28;20193;-41
2023/09/06 10:35:27;;;;;;;5.63;3.40;;;27.00;1.00;;;;;;20572705;28;20050;-41
2023/09/06 10:45:27;;;;;;;11.70;3.30;;;27.20;1.00;;;;;;20585434;28;20125;-43
2023/09/06 10:55:42;;;;;;;4.37;3.00;;;27.50;1.00;;;;;;20589840;28;20039;-43
2023/09/06 11:05:50;;;;;;;4.75;2.40;;;28.00;1.00;;;;;;20591197;28;20061;-44
2023/09/06 11:15:51;;;;;;;4.10;2.28;;;28.60;1.00;;;;;;20591809;28;20031;-44
2023/09/06 11:25:58;;;;;;;7.15;2.90;;;29.00;1.00;;;;;;20590503;28;20070;-44
2023/09/06 11:36:03;;;;;;;3.95;2.80;;;29.30;1.00;;;;;;20588804;28;20042;-43
2023/09/06 11:46:05;;;;;;;3.65;2.35;;;29.70;1.00;;;;;;20587530;28;20077;-44
2023/09/06 11:56:11;;;;;;;3.60;2.20;;;30.10;1.00;;;;;;20588456;28;20523;-43
2023/09/06 12:06:12;;;;;;;;;;;30.40;1.00;;;;;;20587235;28;20047;-44
2023/09/06 12:16:13;;;;;;;4.10;1.90;;;30.30;1.00;;;;;;20582030;28;19917;-44
2023/09/06 12:26:16;;;;;;;2.70;1.70;;;30.60;1.00;;;;;;20587048;28;20088;-44
2023/09/06 12:36:18;;;;;;;2.40;1.70;;;31.00;1.00;;;;;;20584111;28;20042;-44
2023/09/06 12:46:21;;;;;;;3.80;1.70;;;31.20;1.00;;;;;;20578462;28;20141;-44
2023/09/06 12:56:23;;;;;;;3.30;2.08;;;31.60;1.00;;;;;;20579677;28;20532;-43
2023/09/06 13:06:23;;;;;;;2.60;2.00;;;31.90;1.00;;;;;;20568020;28;20411;-44
2023/09/06 13:16:24;;;;;;;2.77;1.80;;;31.70;1.00;;;;;;20571333;28;20569;-44
2023/09/06 13:26:26;;;;;;;4.75;2.28;;;31.40;1.00;;;;;;20573986;28;20042;-44
2023/09/06 13:36:26;;;;;;;4.95;2.00;;;31.30;1.00;;;;;;20570314;28;20054;-44
2023/09/06 13:46:27;;;;;;;3.05;1.98;;;31.80;1.00;;;;;;20571908;28;20042;-43
2023/09/06 13:56:30;;;;;;;3.25;1.98;;;32.20;1.00;;;;;;20593688;28;20310;-44
2023/09/06 14:06:31;;;;;;;3.72;1.85;;;32.50;1.00;;;;;;20587479;28;20098;-44
2023/09/06 14:16:32;;;;;;;3.17;1.83;;;32.50;1.00;;;;;;20587709;28;20410;-43
2023/09/06 14:26:33;;;;;;;2.70;1.75;;;32.00;1.00;;;;;;20585083;28;20043;-43
2023/09/06 14:36:33;;;;;;;2.63;1.73;;;31.70;1.00;;;;;;20587860;28;20042;-43
2023/09/06 14:46:35;;;;;;;4.65;1.95;;;31.40;1.00;;;;;;20590925;28;20383;-44
2023/09/06 14:56:36;;;;;;;3.53;1.70;;;31.20;1.00;;;;;;20590115;28;20615;-44
2023/09/06 15:06:36;;;;;;;3.30;2.25;;;31.10;1.00;;;;;;20588839;28;20038;-43
2023/09/06 15:16:37;;;;;;;2.60;1.80;;;30.90;1.00;;;;;;20587872;28;20069;-43
2023/09/06 15:26:38;;;;;;;2.63;1.77;;;30.70;1.00;;;;;;20585237;28;20057;-44
2023/09/06 15:36:39;;;;;;;4.30;2.15;;;30.50;1.00;;;;;;20579045;28;20047;-43
2023/09/06 15:46:40;;;;;;;3.85;2.38;;;30.30;1.00;;;;;;20588407;28;20498;-43
2023/09/06 15:56:43;;;;;;;3.87;2.10;;;30.30;1.00;;;;;;20582050;28;20110;-43
2023/09/06 16:06:43;;;;;;;3.72;2.42;;;30.20;1.00;;;;;;20583889;28;20456;-43
2023/09/06 16:16:44;;;;;;;4.43;2.83;;;30.10;1.00;;;;;;20580784;28;20419;-43
2023/09/06 16:26:44;;;;;;;4.13;2.80;;;29.70;1.00;;;;;;20586254;28;20066;-44
2023/09/06 16:36:45;;;;;;;4.10;2.80;;;29.30;1.00;;;;;;20577828;28;20063;-44
2023/09/06 16:46:45;;;;;;;5.45;3.33;;;29.10;1.00;;;;;;20577574;28;20038;-44
2023/09/06 16:56:47;;;;;;;4.25;2.85;;;28.90;1.00;;;;;;20572480;28;20526;-43
2023/09/06 17:06:47;;;;;;;4.53;2.80;;;28.60;1.00;;;;;;20576374;28;20038;-43
2023/09/06 17:16:48;;;;;;;6.82;3.25;;;28.30;1.00;;;;;;20577670;28;20050;-43
2023/09/06 17:26:49;;;;;;;5.53;2.85;;;28.00;1.00;;;;;;20584111;28;20042;-43
2023/09/06 17:36:50;;;;;;;6.93;3.30;;;27.60;1.00;;;;;;20600403;28;20133;-44
2023/09/06 17:46:50;;;;;;;4.75;3.47;;;27.20;1.00;;;;;;20605529;28;20113;-43
2023/09/06 17:56:51;;;;;;;4.70;3.00;;;26.70;1.00;;;;;;20601727;28;20053;-43
2023/09/06 18:06:53;;;;;;;6.82;3.75;;;26.20;1.00;;;;;;20586388;28;20053;-43
2023/09/06 18:16:55;;;;;;;6.30;4.15;;;25.70;1.00;;;;;;20584968;28;20600;-43
2023/09/06 18:26:55;;;;;;;7.65;4.65;;;25.30;1.00;;;;;;20587245;28;20042;-43
2023/09/06 18:36:56;;;;;;;8.25;4.53;;;24.80;1.00;;;;;;20580059;28;20434;-43
2023/09/06 18:46:57;;;;;;;5.65;4.03;;;24.40;1.00;;;;;;20589932;28;20042;-43
2023/09/06 18:56:57;;;;;;;6.65;4.50;;;24.00;1.00;;;;;;20578140;28;20035;-43
2023/09/06 19:06:58;;;;;;;7.15;4.40;;;23.70;1.00;;;;;;20589761;28;20113;-43
2023/09/06 19:16:58;;;;;;;7.78;4.45;;;23.50;1.00;;;;;;20587723;28;20117;-43
2023/09/06 19:27:00;;;;;;;8.00;4.70;;;23.20;1.00;;;;;;20588940;28;20593;-43
2023/09/06 19:37:01;;;;;;;7.78;4.55;;;23.00;1.00;;;;;;20588354;28;20047;-43
2023/09/06 19:47:03;;;;;;;6.15;4.82;;;22.70;1.00;;;;;;20583159;28;20061;-43
2023/09/06 19:57:04;;;;;;;5.72;4.18;;;22.50;1.00;;;;;;20583171;28;20120;-43
2023/09/06 20:07:05;;;;;;;6.90;4.55;;;22.30;1.00;;;;;;20586840;28;20053;-43
2023/09/06 20:17:05;;;;;;;6.85;4.38;;;22.10;1.00;;;;;;20574597;28;20105;-43
2023/09/06 20:27:08;;;;;;;6.93;4.80;;;21.90;1.00;;;;;;20571314;28;20043;-43
2023/09/06 20:37:10;;;;;;;6.80;5.30;;;21.70;1.00;;;;;;20572704;28;20042;-43
2023/09/06 20:47:10;;;;;;;7.55;6.32;;;21.60;1.00;;;;;;20563013;28;20046;-43
2023/09/06 20:57:11;;;;;;;7.57;4.85;;;21.40;1.00;;;;;;20532533;28;20053;-43
2023/09/06 21:07:11;;;;;;;5.97;4.63;;;21.30;1.00;;;;;;20531921;28;20149;-43
2023/09/06 21:17:12;;;;;;;5.78;4.70;;;21.20;1.00;;;;;;20544210;28;20104;-43
2023/09/06 21:27:13;;;;;;;5.22;4.45;;;21.00;1.00;;;;;;20560632;28;20097;-43
2023/09/06 21:37:13;;;;;;;8.80;5.63;;;20.90;1.00;;;;;;20564166;28;20108;-43
2023/09/06 21:47:14;;;;;;;8.43;5.30;;;20.80;1.00;;;;;;20572195;28;20470;-43
2023/09/06 21:57:14;;;;;;;6.47;4.55;;;20.70;1.00;;;;;;20532024;28;20066;-43
2023/09/06 22:07:15;;;;;;;5.72;4.78;;;20.50;1.00;;;;;;20558985;28;20537;-43
2023/09/06 22:17:16;;;;;;;5.40;4.25;;;20.40;1.00;;;;;;20557567;28;20434;-43
2023/09/06 22:27:16;;;;;;;6.70;4.95;;;20.30;1.00;;;;;;20582435;28;20059;-43
2023/09/06 22:37:17;;;;;;;8.38;4.78;;;20.20;1.00;;;;;;20576329;28;20051;-43
2023/09/06 22:47:17;;;;;;;6.25;5.00;;;20.10;1.00;;;;;;20576893;28;20105;-43
2023/09/06 22:57:18;;;;;;;7.18;4.45;;;19.90;1.00;;;;;;20572803;28;20050;-43
2023/09/06 23:07:20;;;;;;;6.93;5.15;;;19.90;1.00;;;;;;20572020;28;20047;-43
2023/09/06 23:17:23;;;;;;;6.75;5.03;;;19.70;1.00;;;;;;20567005;28;20395;-43
2023/09/06 23:27:25;;;;;;;6.22;4.93;;;19.60;1.00;;;;;;20572290;28;20122;-43
2023/09/06 23:37:28;;;;;;;6.63;5.40;;;19.50;1.00;;;;;;20568358;28;20038;-43
2023/09/06 23:47:30;;;;;;;6.20;5.03;;;19.40;1.00;;;;;;20572086;28;20089;-43
2023/09/06 23:57:31;;;;;;;7.18;5.45;;;19.30;1.00;;;;;;20580472;28;20511;-43
